Mc Allen Miller International Airport Mc Allen US
ICAO: KMFE
IATA: MFE
Category: Medium
Scheduled Services: Yes

Elevation: 107 ft
TransAlt. 18000 ft.

Airport Communications:
VALLEY APP/DEP:121
ASOS:128.5
ATIS:128.5
CTAF:118.5
GND:121.8
SAN ANGELO RDO:122.2
TWR:118.5
UNICOM:122.95

KMFE Zoom In..

If Map Doesn't Load, Click Here

Runways:

(A) RW 13 length 7120 ft width 150 ft
ILS 111.70 / hdg 134

(B) RW 18 length 2638 ft width 60 ft
---- / hdg 182

(C) RW 31 length 7120 ft width 150 ft
ILS 111.70 / hdg 314

(D) RW 36 length 2638 ft width 60 ft
---- / hdg 2

Location; KMFE
Day. 21 / Time. 16.00 Zulu
* Altimeter: 29.91
* Temperature: 32° c. 89.6°f.
* Wind from: 150° Speed 13 kn.
Dewpoint: 26° c.
Visibility: 10 Statute Miles.
Clouds: Scattered 2700 ft.
Clouds: Broken 3200 ft.

KMFE 211600Z 15013KT 10SM SCT027 BKN032 32/26 A2991 RMK AO2 T03220256


Wind From 150°
Speed 13 kn.

 
 
jpsmedia.com for Web Design worldairports.se 2018   terms of use